sensor_id;sensor_type;location;lat;lon;timestamp;pressure;altitude;pressure_sealevel;temperature;humidity
706;BME280;21234;48.690;9.016;2024-02-21T00:01:15;97099.28;;;5.00;100.00
706;BME280;21234;48.690;9.016;2024-02-21T00:03:42;97101.09;;;4.93;100.00
706;BME280;21234;48.690;9.016;2024-02-21T00:06:08;97090.75;;;4.96;100.00
706;BME280;21234;48.690;9.016;2024-02-21T00:08:35;97085.56;;;4.95;100.00
706;BME280;21234;48.690;9.016;2024-02-21T00:11:02;97085.94;;;4.92;100.00
706;BME280;21234;48.690;9.016;2024-02-21T00:13:29;97084.28;;;4.91;100.00
706;BME280;21234;48.690;9.016;2024-02-21T00:15:57;97084.28;;;4.91;100.00
706;BME280;21234;48.690;9.016;2024-02-21T00:18:23;97083.75;;;5.02;100.00
706;BME280;21234;48.690;9.016;2024-02-21T00:20:50;97074.41;;;4.98;100.00
706;BME280;21234;48.690;9.016;2024-02-21T00:23:17;97070.28;;;5.02;100.00
706;BME280;21234;48.690;9.016;2024-02-21T00:25:44;97071.50;;;4.99;100.00
706;BME280;21234;48.690;9.016;2024-02-21T00:28:11;97057.84;;;5.01;100.00
706;BME280;21234;48.690;9.016;2024-02-21T00:30:38;97055.00;;;5.09;100.00
706;BME280;21234;48.690;9.016;2024-02-21T00:33:06;97046.66;;;5.04;100.00
706;BME280;21234;48.690;9.016;2024-02-21T00:35:33;97052.06;;;5.04;100.00
706;BME280;21234;48.690;9.016;2024-02-21T00:37:59;97051.47;;;5.09;100.00
706;BME280;21234;48.690;9.016;2024-02-21T00:40:26;97054.38;;;5.07;100.00
706;BME280;21234;48.690;9.016;2024-02-21T00:42:53;97048.78;;;5.09;100.00
706;BME280;21234;48.690;9.016;2024-02-21T00:45:19;97053.34;;;5.08;100.00
706;BME280;21234;48.690;9.016;2024-02-21T00:47:46;97051.28;;;5.10;100.00
706;BME280;21234;48.690;9.016;2024-02-21T00:50:14;97045.09;;;5.16;100.00
706;BME280;21234;48.690;9.016;2024-02-21T00:52:41;97042.63;;;5.21;100.00
706;BME280;21234;48.690;9.016;2024-02-21T00:55:08;97038.69;;;5.17;100.00
706;BME280;21234;48.690;9.016;2024-02-21T00:57:34;97034.53;;;5.21;100.00
706;BME280;21234;48.690;9.016;2024-02-21T01:00:01;97031.66;;;5.23;99.47
706;BME280;21234;48.690;9.016;2024-02-21T01:02:28;97036.25;;;5.29;99.92
706;BME280;21234;48.690;9.016;2024-02-21T01:04:56;97033.16;;;5.32;100.00
706;BME280;21234;48.690;9.016;2024-02-21T01:07:24;97029.81;;;5.30;100.00
706;BME280;21234;48.690;9.016;2024-02-21T01:09:51;97022.38;;;5.32;100.00
706;BME280;21234;48.690;9.016;2024-02-21T01:12:18;97014.25;;;5.25;100.00
706;BME280;21234;48.690;9.016;2024-02-21T01:14:45;97016.31;;;5.23;98.90
706;BME280;21234;48.690;9.016;2024-02-21T01:17:12;97008.00;;;5.18;98.94
706;BME280;21234;48.690;9.016;2024-02-21T01:19:39;97002.81;;;5.17;99.28
706;BME280;21234;48.690;9.016;2024-02-21T01:22:06;97005.06;;;5.13;99.21
706;BME280;21234;48.690;9.016;2024-02-21T01:24:34;96995.94;;;5.14;99.14
706;BME280;21234;48.690;9.016;2024-02-21T01:27:01;96989.72;;;5.14;98.99
706;BME280;21234;48.690;9.016;2024-02-21T01:29:28;96982.88;;;5.11;98.98
706;BME280;21234;48.690;9.016;2024-02-21T01:31:54;96976.22;;;5.07;98.84
706;BME280;21234;48.690;9.016;2024-02-21T01:34:21;96974.53;;;5.06;98.53
706;BME280;21234;48.690;9.016;2024-02-21T01:36:48;96975.63;;;5.12;99.00
706;BME280;21234;48.690;9.016;2024-02-21T01:39:14;96970.78;;;5.00;98.10
706;BME280;21234;48.690;9.016;2024-02-21T01:41:42;96976.56;;;4.97;98.78
706;BME280;21234;48.690;9.016;2024-02-21T01:44:09;96969.44;;;4.90;98.52
706;BME280;21234;48.690;9.016;2024-02-21T01:46:36;96968.88;;;4.94;98.71
706;BME280;21234;48.690;9.016;2024-02-21T01:49:03;96959.31;;;4.92;98.52
706;BME280;21234;48.690;9.016;2024-02-21T01:51:30;96954.09;;;4.84;98.71
706;BME280;21234;48.690;9.016;2024-02-21T01:53:57;96956.59;;;4.85;98.96
706;BME280;21234;48.690;9.016;2024-02-21T01:56:25;96954.88;;;4.78;99.06
706;BME280;21234;48.690;9.016;2024-02-21T01:58:53;96947.44;;;4.80;99.46
706;BME280;21234;48.690;9.016;2024-02-21T02:01:21;96944.06;;;4.71;99.64
706;BME280;21234;48.690;9.016;2024-02-21T02:03:48;96944.47;;;4.68;99.88
706;BME280;21234;48.690;9.016;2024-02-21T02:06:15;96926.63;;;4.67;99.70
706;BME280;21234;48.690;9.016;2024-02-21T02:08:42;96929.13;;;4.68;99.76
706;BME280;21234;48.690;9.016;2024-02-21T02:11:09;96932.47;;;4.70;99.45
706;BME280;21234;48.690;9.016;2024-02-21T02:13:36;96928.53;;;4.73;99.35
706;BME280;21234;48.690;9.016;2024-02-21T02:16:05;96926.81;;;4.65;99.49
706;BME280;21234;48.690;9.016;2024-02-21T02:18:32;96917.72;;;4.66;99.17
706;BME280;21234;48.690;9.016;2024-02-21T02:20:59;96915.47;;;4.70;99.07
706;BME280;21234;48.690;9.016;2024-02-21T02:23:28;96904.25;;;4.66;99.32
706;BME280;21234;48.690;9.016;2024-02-21T02:25:54;96906.56;;;4.69;99.44
706;BME280;21234;48.690;9.016;2024-02-21T02:28:21;96902.19;;;4.68;99.56
706;BME280;21234;48.690;9.016;2024-02-21T02:30:48;96897.41;;;4.64;99.17
706;BME280;21234;48.690;9.016;2024-02-21T02:33:15;96894.50;;;4.65;99.59
706;BME280;21234;48.690;9.016;2024-02-21T02:35:42;96895.34;;;4.66;99.38
706;BME280;21234;48.690;9.016;2024-02-21T02:38:09;96890.78;;;4.66;99.02
706;BME280;21234;48.690;9.016;2024-02-21T02:40:39;96891.81;;;4.65;99.55
706;BME280;21234;48.690;9.016;2024-02-21T02:43:05;96882.31;;;4.69;99.69
706;BME280;21234;48.690;9.016;2024-02-21T02:45:32;96883.59;;;4.73;99.28
706;BME280;21234;48.690;9.016;2024-02-21T02:47:59;96882.56;;;4.75;98.98
706;BME280;21234;48.690;9.016;2024-02-21T02:50:27;96868.50;;;4.79;98.98
706;BME280;21234;48.690;9.016;2024-02-21T02:52:54;96866.63;;;4.80;99.42
706;BME280;21234;48.690;9.016;2024-02-21T02:55:21;96862.66;;;4.76;99.78
706;BME280;21234;48.690;9.016;2024-02-21T02:57:49;96867.22;;;4.75;100.00
706;BME280;21234;48.690;9.016;2024-02-21T03:00:16;96874.50;;;4.81;99.61
706;BME280;21234;48.690;9.016;2024-02-21T03:02:43;96865.38;;;4.76;98.86
706;BME280;21234;48.690;9.016;2024-02-21T03:05:13;96859.19;;;4.82;99.01
706;BME280;21234;48.690;9.016;2024-02-21T03:07:41;96853.16;;;4.80;99.32
706;BME280;21234;48.690;9.016;2024-02-21T03:10:08;96851.09;;;4.82;99.50
706;BME280;21234;48.690;9.016;2024-02-21T03:12:35;96848.00;;;4.85;99.44
706;BME280;21234;48.690;9.016;2024-02-21T03:15:05;96847.56;;;4.81;99.02
706;BME280;21234;48.690;9.016;2024-02-21T03:17:32;96852.56;;;4.84;100.00
706;BME280;21234;48.690;9.016;2024-02-21T03:19:59;96851.69;;;4.77;98.58
706;BME280;21234;48.690;9.016;2024-02-21T03:22:26;96850.06;;;4.83;99.33
706;BME280;21234;48.690;9.016;2024-02-21T03:24:53;96838.28;;;4.90;99.73
706;BME280;21234;48.690;9.016;2024-02-21T03:27:20;96831.84;;;4.91;99.62
706;BME280;21234;48.690;9.016;2024-02-21T03:29:46;96827.09;;;4.87;98.72
706;BME280;21234;48.690;9.016;2024-02-21T03:32:14;96825.88;;;4.96;99.78
706;BME280;21234;48.690;9.016;2024-02-21T03:34:41;96816.91;;;4.89;98.54
706;BME280;21234;48.690;9.016;2024-02-21T03:37:08;96820.88;;;4.93;97.85
706;BME280;21234;48.690;9.016;2024-02-21T03:39:34;96812.63;;;5.01;98.47
706;BME280;21234;48.690;9.016;2024-02-21T03:42:02;96829.38;;;4.96;98.39
706;BME280;21234;48.690;9.016;2024-02-21T03:44:30;96828.34;;;4.97;99.39
706;BME280;21234;48.690;9.016;2024-02-21T03:46:57;96822.13;;;4.97;99.62
706;BME280;21234;48.690;9.016;2024-02-21T03:49:25;96827.53;;;4.97;98.23
706;BME280;21234;48.690;9.016;2024-02-21T03:51:52;96830.38;;;4.89;97.17
706;BME280;21234;48.690;9.016;2024-02-21T03:54:19;96838.25;;;4.84;99.06
706;BME280;21234;48.690;9.016;2024-02-21T03:56:45;96826.03;;;4.88;99.89
706;BME280;21234;48.690;9.016;2024-02-21T03:59:13;96822.09;;;4.84;100.00
706;BME280;21234;48.690;9.016;2024-02-21T04:01:39;96820.59;;;4.75;99.91
706;BME280;21234;48.690;9.016;2024-02-21T04:04:06;96814.34;;;4.67;98.59
706;BME280;21234;48.690;9.016;2024-02-21T04:06:34;96808.16;;;4.73;97.60
706;BME280;21234;48.690;9.016;2024-02-21T04:09:02;96806.31;;;4.74;97.00
706;BME280;21234;48.690;9.016;2024-02-21T04:11:28;96795.09;;;4.70;96.68
706;BME280;21234;48.690;9.016;2024-02-21T04:13:55;96801.53;;;4.69;96.61
706;BME280;21234;48.690;9.016;2024-02-21T04:16:22;96797.13;;;4.62;95.72
706;BME280;21234;48.690;9.016;2024-02-21T04:18:48;96794.41;;;4.55;95.70
706;BME280;21234;48.690;9.016;2024-02-21T04:21:17;96792.72;;;4.48;95.27
706;BME280;21234;48.690;9.016;2024-02-21T04:23:45;96776.53;;;4.41;95.47
706;BME280;21234;48.690;9.016;2024-02-21T04:26:12;96779.81;;;4.36;95.48
706;BME280;21234;48.690;9.016;2024-02-21T04:28:38;96785.78;;;4.32;95.60
706;BME280;21234;48.690;9.016;2024-02-21T04:31:05;96787.00;;;4.29;95.67
706;BME280;21234;48.690;9.016;2024-02-21T04:33:32;96783.69;;;4.27;96.03
706;BME280;21234;48.690;9.016;2024-02-21T04:35:58;96773.56;;;4.29;95.75
706;BME280;21234;48.690;9.016;2024-02-21T04:38:26;96775.66;;;4.34;96.02
706;BME280;21234;48.690;9.016;2024-02-21T04:40:55;96777.94;;;4.37;95.86
706;BME280;21234;48.690;9.016;2024-02-21T04:43:24;96776.72;;;4.39;96.35
706;BME280;21234;48.690;9.016;2024-02-21T04:45:50;96779.47;;;4.46;95.65
706;BME280;21234;48.690;9.016;2024-02-21T04:48:18;96774.72;;;4.48;95.03
706;BME280;21234;48.690;9.016;2024-02-21T04:50:45;96771.19;;;4.48;94.84
706;BME280;21234;48.690;9.016;2024-02-21T04:53:12;96768.66;;;4.39;95.13
706;BME280;21234;48.690;9.016;2024-02-21T04:55:39;96776.53;;;4.41;95.04
706;BME280;21234;48.690;9.016;2024-02-21T04:58:07;96778.19;;;4.42;94.44
706;BME280;21234;48.690;9.016;2024-02-21T05:00:34;96780.44;;;4.38;95.01
706;BME280;21234;48.690;9.016;2024-02-21T05:03:01;96787.22;;;4.28;94.75
706;BME280;21234;48.690;9.016;2024-02-21T05:05:28;96787.66;;;4.31;95.45
706;BME280;21234;48.690;9.016;2024-02-21T05:07:54;96781.00;;;4.27;95.17
706;BME280;21234;48.690;9.016;2024-02-21T05:10:21;96776.19;;;4.23;94.59
706;BME280;21234;48.690;9.016;2024-02-21T05:12:48;96784.25;;;4.16;94.94
706;BME280;21234;48.690;9.016;2024-02-21T05:15:16;96783.00;;;4.12;95.61
706;BME280;21234;48.690;9.016;2024-02-21T05:17:43;96780.06;;;4.07;95.91
706;BME280;21234;48.690;9.016;2024-02-21T05:20:11;96766.00;;;4.12;95.84
706;BME280;21234;48.690;9.016;2024-02-21T05:22:37;96765.44;;;4.16;96.17
706;BME280;21234;48.690;9.016;2024-02-21T05:25:05;96759.81;;;4.11;95.72
706;BME280;21234;48.690;9.016;2024-02-21T05:27:32;96749.91;;;4.18;95.17
706;BME280;21234;48.690;9.016;2024-02-21T05:29:58;96745.72;;;4.09;95.02
706;BME280;21234;48.690;9.016;2024-02-21T05:32:27;96734.50;;;4.05;95.71
706;BME280;21234;48.690;9.016;2024-02-21T05:34:53;96717.97;;;4.09;95.66
706;BME280;21234;48.690;9.016;2024-02-21T05:37:20;96727.75;;;4.16;96.07
706;BME280;21234;48.690;9.016;2024-02-21T05:39:48;96726.94;;;4.16;94.99
706;BME280;21234;48.690;9.016;2024-02-21T05:42:14;96725.25;;;4.15;95.70
706;BME280;21234;48.690;9.016;2024-02-21T05:44:41;96713.63;;;4.08;94.77
706;BME280;21234;48.690;9.016;2024-02-21T05:47:08;96715.69;;;4.05;95.04
706;BME280;21234;48.690;9.016;2024-02-21T05:49:37;96708.25;;;4.08;95.33
706;BME280;21234;48.690;9.016;2024-02-21T05:52:04;96710.34;;;4.12;96.13
706;BME280;21234;48.690;9.016;2024-02-21T05:54:31;96710.31;;;4.05;95.41
706;BME280;21234;48.690;9.016;2024-02-21T05:56:58;96700.81;;;4.10;95.04
706;BME280;21234;48.690;9.016;2024-02-21T05:59:25;96703.06;;;4.06;94.57
706;BME280;21234;48.690;9.016;2024-02-21T06:01:55;96703.94;;;4.13;94.23
706;BME280;21234;48.690;9.016;2024-02-21T06:04:23;96708.09;;;4.16;93.28
706;BME280;21234;48.690;9.016;2024-02-21T06:06:51;96707.25;;;4.15;93.59
706;BME280;21234;48.690;9.016;2024-02-21T06:09:17;96705.41;;;4.16;93.76
706;BME280;21234;48.690;9.016;2024-02-21T06:11:44;96707.06;;;4.17;93.49
706;BME280;21234;48.690;9.016;2024-02-21T06:14:11;96713.28;;;4.17;93.65
706;BME280;21234;48.690;9.016;2024-02-21T06:16:38;96706.03;;;4.24;94.37
706;BME280;21234;48.690;9.016;2024-02-21T06:19:04;96697.97;;;4.24;94.08
706;BME280;21234;48.690;9.016;2024-02-21T06:21:31;96700.25;;;4.21;93.72
706;BME280;21234;48.690;9.016;2024-02-21T06:23:59;96703.97;;;4.20;93.92
706;BME280;21234;48.690;9.016;2024-02-21T06:26:26;96706.66;;;4.20;93.57
706;BME280;21234;48.690;9.016;2024-02-21T06:28:52;96712.69;;;4.22;93.42
706;BME280;21234;48.690;9.016;2024-02-21T06:31:19;96718.06;;;4.28;94.09
706;BME280;21234;48.690;9.016;2024-02-21T06:33:46;96722.41;;;4.29;94.12
706;BME280;21234;48.690;9.016;2024-02-21T06:36:12;96728.38;;;4.18;94.06
706;BME280;21234;48.690;9.016;2024-02-21T06:38:39;96732.91;;;4.11;95.12
706;BME280;21234;48.690;9.016;2024-02-21T06:41:14;96729.81;;;4.14;95.32
706;BME280;21234;48.690;9.016;2024-02-21T06:43:41;96725.50;;;4.20;95.75
706;BME280;21234;48.690;9.016;2024-02-21T06:46:08;96723.84;;;4.19;95.59
706;BME280;21234;48.690;9.016;2024-02-21T06:48:34;96725.72;;;4.25;95.34
706;BME280;21234;48.690;9.016;2024-02-21T06:51:01;96728.81;;;4.22;95.39
706;BME280;21234;48.690;9.016;2024-02-21T06:53:28;96714.31;;;4.23;95.12
706;BME280;21234;48.690;9.016;2024-02-21T06:55:55;96717.31;;;4.41;95.22
706;BME280;21234;48.690;9.016;2024-02-21T06:58:23;96720.47;;;4.58;94.06
706;BME280;21234;48.690;9.016;2024-02-21T07:00:50;96711.16;;;4.60;92.31
706;BME280;21234;48.690;9.016;2024-02-21T07:03:16;96717.59;;;4.66;91.26
706;BME280;21234;48.690;9.016;2024-02-21T07:05:43;96706.03;;;4.72;92.06
706;BME280;21234;48.690;9.016;2024-02-21T07:08:09;96706.47;;;4.82;91.48
706;BME280;21234;48.690;9.016;2024-02-21T07:10:36;96704.00;;;4.94;91.13
706;BME280;21234;48.690;9.016;2024-02-21T07:13:03;96697.56;;;4.88;90.20
706;BME280;21234;48.690;9.016;2024-02-21T07:15:31;96698.38;;;4.89;89.74
706;BME280;21234;48.690;9.016;2024-02-21T07:17:58;96706.47;;;4.82;89.33
706;BME280;21234;48.690;9.016;2024-02-21T07:20:25;96701.31;;;4.94;89.58
706;BME280;21234;48.690;9.016;2024-02-21T07:22:51;96698.38;;;4.89;89.46
706;BME280;21234;48.690;9.016;2024-02-21T07:25:18;96695.31;;;4.98;89.94
706;BME280;21234;48.690;9.016;2024-02-21T07:27:45;96698.06;;;5.51;88.22
706;BME280;21234;48.690;9.016;2024-02-21T07:30:12;96694.47;;;6.03;85.34
706;BME280;21234;48.690;9.016;2024-02-21T07:32:40;96690.31;;;6.07;83.92
706;BME280;21234;48.690;9.016;2024-02-21T07:35:07;96689.47;;;6.07;84.16
706;BME280;21234;48.690;9.016;2024-02-21T07:37:36;96682.16;;;6.21;82.75
706;BME280;21234;48.690;9.016;2024-02-21T07:40:03;96666.16;;;6.70;80.31
706;BME280;21234;48.690;9.016;2024-02-21T07:42:30;96666.03;;;6.52;78.87
706;BME280;21234;48.690;9.016;2024-02-21T07:44:57;96662.69;;;6.05;81.91
706;BME280;21234;48.690;9.016;2024-02-21T07:47:23;96656.31;;;5.80;83.69
706;BME280;21234;48.690;9.016;2024-02-21T07:49:51;96654.47;;;5.54;85.57
706;BME280;21234;48.690;9.016;2024-02-21T07:52:18;96652.22;;;5.45;86.76
706;BME280;21234;48.690;9.016;2024-02-21T07:54:45;96657.78;;;5.30;87.17
706;BME280;21234;48.690;9.016;2024-02-21T07:57:11;96647.84;;;5.50;87.62
706;BME280;21234;48.690;9.016;2024-02-21T07:59:38;96657.78;;;5.69;86.63
706;BME280;21234;48.690;9.016;2024-02-21T08:02:05;96647.34;;;5.86;85.79
706;BME280;21234;48.690;9.016;2024-02-21T08:04:32;96643.81;;;5.86;85.17
706;BME280;21234;48.690;9.016;2024-02-21T08:07:00;96643.63;;;5.94;84.66
706;BME280;21234;48.690;9.016;2024-02-21T08:09:29;96654.41;;;5.94;85.10
706;BME280;21234;48.690;9.016;2024-02-21T08:11:56;96654.81;;;5.97;85.24
706;BME280;21234;48.690;9.016;2024-02-21T08:14:22;96647.16;;;5.94;84.81
706;BME280;21234;48.690;9.016;2024-02-21T08:16:50;96649.84;;;6.01;85.01
706;BME280;21234;48.690;9.016;2024-02-21T08:19:18;96648.16;;;5.87;84.05
706;BME280;21234;48.690;9.016;2024-02-21T08:21:45;96652.53;;;5.88;84.12
706;BME280;21234;48.690;9.016;2024-02-21T08:24:13;96656.69;;;5.97;84.05
706;BME280;21234;48.690;9.016;2024-02-21T08:26:41;96651.09;;;5.98;84.14
706;BME280;21234;48.690;9.016;2024-02-21T08:29:07;96652.09;;;6.11;83.80
706;BME280;21234;48.690;9.016;2024-02-21T08:31:34;96652.66;;;6.19;83.78
706;BME280;21234;48.690;9.016;2024-02-21T08:34:01;96637.50;;;6.25;83.38
706;BME280;21234;48.690;9.016;2024-02-21T08:36:29;96637.28;;;6.26;82.04
706;BME280;21234;48.690;9.016;2024-02-21T08:38:55;96614.22;;;6.30;82.69
706;BME280;21234;48.690;9.016;2024-02-21T08:41:24;96615.66;;;6.33;82.22
706;BME280;21234;48.690;9.016;2024-02-21T08:43:51;96625.22;;;6.29;81.83
706;BME280;21234;48.690;9.016;2024-02-21T08:46:19;96614.38;;;6.42;82.22
706;BME280;21234;48.690;9.016;2024-02-21T08:48:45;96615.00;;;6.37;81.86
706;BME280;21234;48.690;9.016;2024-02-21T08:51:13;96608.53;;;6.45;81.63
706;BME280;21234;48.690;9.016;2024-02-21T08:53:39;96610.19;;;6.46;82.42
706;BME280;21234;48.690;9.016;2024-02-21T08:56:06;96611.03;;;6.47;81.26
706;BME280;21234;48.690;9.016;2024-02-21T08:58:35;96604.94;;;6.51;81.10
706;BME280;21234;48.690;9.016;2024-02-21T09:01:03;96598.25;;;6.60;81.15
706;BME280;21234;48.690;9.016;2024-02-21T09:03:31;96595.16;;;6.57;80.17
706;BME280;21234;48.690;9.016;2024-02-21T09:05:58;96591.00;;;6.54;80.72
706;BME280;21234;48.690;9.016;2024-02-21T09:08:25;96586.72;;;6.47;80.22
706;BME280;21234;48.690;9.016;2024-02-21T09:10:51;96587.88;;;6.57;80.82
706;BME280;21234;48.690;9.016;2024-02-21T09:13:18;96585.75;;;6.66;80.48
706;BME280;21234;48.690;9.016;2024-02-21T09:15:47;96586.38;;;6.68;79.33
706;BME280;21234;48.690;9.016;2024-02-21T09:18:13;96573.22;;;6.78;79.46
706;BME280;21234;48.690;9.016;2024-02-21T09:20:40;96574.44;;;6.82;78.94
706;BME280;21234;48.690;9.016;2024-02-21T09:23:07;96572.22;;;6.97;79.30
706;BME280;21234;48.690;9.016;2024-02-21T09:25:34;96567.44;;;6.99;76.97
706;BME280;21234;48.690;9.016;2024-02-21T09:28:02;96571.91;;;7.12;77.23
706;BME280;21234;48.690;9.016;2024-02-21T09:30:29;96571.81;;;7.19;76.26
706;BME280;21234;48.690;9.016;2024-02-21T09:32:57;96568.28;;;7.43;76.73
706;BME280;21234;48.690;9.016;2024-02-21T09:35:25;96562.94;;;7.36;73.24
706;BME280;21234;48.690;9.016;2024-02-21T09:37:53;96564.97;;;7.41;73.73
706;BME280;21234;48.690;9.016;2024-02-21T09:40:20;96567.41;;;7.24;73.20
706;BME280;21234;48.690;9.016;2024-02-21T09:42:48;96566.38;;;7.25;74.24
706;BME280;21234;48.690;9.016;2024-02-21T09:45:19;96563.72;;;7.44;73.40
706;BME280;21234;48.690;9.016;2024-02-21T09:47:53;96557.84;;;7.65;73.28
706;BME280;21234;48.690;9.016;2024-02-21T09:50:26;96555.75;;;7.85;71.90
706;BME280;21234;48.690;9.016;2024-02-21T09:52:54;96534.63;;;7.94;71.08
706;BME280;21234;48.690;9.016;2024-02-21T09:55:21;96550.25;;;8.10;71.00
706;BME280;21234;48.690;9.016;2024-02-21T09:57:51;96543.22;;;8.21;69.17
706;BME280;21234;48.690;9.016;2024-02-21T10:00:18;96540.16;;;8.35;69.65
706;BME280;21234;48.690;9.016;2024-02-21T10:02:47;96538.66;;;8.39;68.75
706;BME280;21234;48.690;9.016;2024-02-21T10:05:14;96529.97;;;8.61;66.75
706;BME280;21234;48.690;9.016;2024-02-21T10:07:42;96533.78;;;8.71;67.27
706;BME280;21234;48.690;9.016;2024-02-21T10:10:10;96534.84;;;8.82;66.82
706;BME280;21234;48.690;9.016;2024-02-21T10:12:48;96521.78;;;8.91;66.84
706;BME280;21234;48.690;9.016;2024-02-21T10:15:19;96526.03;;;8.87;65.92
706;BME280;21234;48.690;9.016;2024-02-21T10:17:46;96523.31;;;8.87;66.90
706;BME280;21234;48.690;9.016;2024-02-21T10:20:13;96518.81;;;8.81;66.66
706;BME280;21234;48.690;9.016;2024-02-21T10:22:43;96514.72;;;8.90;66.53
706;BME280;21234;48.690;9.016;2024-02-21T10:25:10;96506.59;;;8.90;67.28
706;BME280;21234;48.690;9.016;2024-02-21T10:27:37;96508.25;;;8.91;66.19
706;BME280;21234;48.690;9.016;2024-02-21T10:30:05;96510.22;;;8.84;66.48
706;BME280;21234;48.690;9.016;2024-02-21T10:32:32;96508.50;;;9.01;66.95
706;BME280;21234;48.690;9.016;2024-02-21T10:35:02;96503.06;;;9.01;66.59
706;BME280;21234;48.690;9.016;2024-02-21T10:37:30;96505.63;;;8.84;65.29
706;BME280;21234;48.690;9.016;2024-02-21T10:39:58;96492.44;;;8.88;65.29
706;BME280;21234;48.690;9.016;2024-02-21T10:42:29;96490.91;;;8.92;65.16
706;BME280;21234;48.690;9.016;2024-02-21T10:45:00;96490.34;;;9.01;62.90
706;BME280;21234;48.690;9.016;2024-02-21T10:47:32;96481.59;;;9.23;64.66
706;BME280;21234;48.690;9.016;2024-02-21T10:50:03;96473.34;;;9.29;63.34
706;BME280;21234;48.690;9.016;2024-02-21T10:52:35;96476.53;;;9.26;59.86
706;BME280;21234;48.690;9.016;2024-02-21T10:55:10;96476.31;;;9.39;59.94
706;BME280;21234;48.690;9.016;2024-02-21T10:57:40;96464.34;;;9.52;60.05
706;BME280;21234;48.690;9.016;2024-02-21T11:00:09;96470.25;;;9.49;57.84
706;BME280;21234;48.690;9.016;2024-02-21T11:02:38;96469.91;;;9.57;60.17
706;BME280;21234;48.690;9.016;2024-02-21T11:05:07;96460.81;;;9.52;58.49
706;BME280;21234;48.690;9.016;2024-02-21T11:07:35;96457.16;;;9.58;59.98
706;BME280;21234;48.690;9.016;2024-02-21T11:10:04;96439.22;;;9.57;59.09
706;BME280;21234;48.690;9.016;2024-02-21T11:12:34;96434.72;;;9.62;59.99
706;BME280;21234;48.690;9.016;2024-02-21T11:15:04;96435.91;;;9.66;59.49
706;BME280;21234;48.690;9.016;2024-02-21T11:17:31;96431.19;;;9.62;57.93
706;BME280;21234;48.690;9.016;2024-02-21T11:19:58;96422.72;;;9.47;57.98
706;BME280;21234;48.690;9.016;2024-02-21T11:22:26;96417.50;;;9.57;58.65
706;BME280;21234;48.690;9.016;2024-02-21T11:25:06;96409.63;;;9.43;56.91
706;BME280;21234;48.690;9.016;2024-02-21T11:27:35;96404.53;;;9.59;57.31
706;BME280;21234;48.690;9.016;2024-02-21T11:30:04;96400.38;;;9.68;56.58
706;BME280;21234;48.690;9.016;2024-02-21T11:32:31;96395.34;;;9.76;57.06
706;BME280;21234;48.690;9.016;2024-02-21T11:34:59;96393.56;;;9.82;56.61
706;BME280;21234;48.690;9.016;2024-02-21T11:37:27;96382.44;;;9.95;56.91
706;BME280;21234;48.690;9.016;2024-02-21T11:39:53;96393.97;;;10.02;55.45
706;BME280;21234;48.690;9.016;2024-02-21T11:42:20;96382.94;;;10.09;56.51
706;BME280;21234;48.690;9.016;2024-02-21T11:44:49;96373.88;;;10.03;55.54
706;BME280;21234;48.690;9.016;2024-02-21T11:47:15;96370.28;;;10.15;54.53
706;BME280;21234;48.690;9.016;2024-02-21T11:49:44;96363.28;;;10.19;55.28
706;BME280;21234;48.690;9.016;2024-02-21T11:52:12;96365.78;;;10.20;54.34
706;BME280;21234;48.690;9.016;2024-02-21T11:54:41;96360.22;;;10.15;53.85
706;BME280;21234;48.690;9.016;2024-02-21T11:57:07;96350.44;;;10.14;53.53
706;BME280;21234;48.690;9.016;2024-02-21T11:59:34;96353.03;;;10.21;53.91
706;BME280;21234;48.690;9.016;2024-02-21T12:02:03;96338.56;;;10.32;55.57
706;BME280;21234;48.690;9.016;2024-02-21T12:04:30;96345.28;;;10.46;53.05
706;BME280;21234;48.690;9.016;2024-02-21T12:06:57;96333.13;;;10.32;49.98
706;BME280;21234;48.690;9.016;2024-02-21T12:09:24;96325.34;;;10.40;50.97
706;BME280;21234;48.690;9.016;2024-02-21T12:11:58;96323.97;;;10.55;51.34
706;BME280;21234;48.690;9.016;2024-02-21T12:14:25;96322.56;;;10.52;49.16
706;BME280;21234;48.690;9.016;2024-02-21T12:16:52;96318.28;;;10.56;49.82
706;BME280;21234;48.690;9.016;2024-02-21T12:19:20;96306.81;;;10.71;50.66
706;BME280;21234;48.690;9.016;2024-02-21T12:21:48;96291.63;;;10.75;49.27
706;BME280;21234;48.690;9.016;2024-02-21T12:24:17;96289.72;;;10.75;48.75
706;BME280;21234;48.690;9.016;2024-02-21T12:26:45;96294.09;;;10.76;48.21
706;BME280;21234;48.690;9.016;2024-02-21T12:29:12;96289.72;;;10.75;47.31
706;BME280;21234;48.690;9.016;2024-02-21T12:31:39;96279.34;;;10.72;47.85
706;BME280;21234;48.690;9.016;2024-02-21T12:34:06;96277.78;;;10.76;47.80
706;BME280;21234;48.690;9.016;2024-02-21T12:36:41;96268.91;;;10.64;46.89
706;BME280;21234;48.690;9.016;2024-02-21T12:39:08;96264.13;;;10.71;48.66
706;BME280;21234;48.690;9.016;2024-02-21T12:41:35;96259.63;;;10.82;48.96
706;BME280;21234;48.690;9.016;2024-02-21T12:44:03;96257.81;;;10.88;47.77
706;BME280;21234;48.690;9.016;2024-02-21T12:46:32;96248.00;;;10.87;47.52
706;BME280;21234;48.690;9.016;2024-02-21T12:48:59;96247.44;;;10.85;47.85
706;BME280;21234;48.690;9.016;2024-02-21T12:51:25;96251.94;;;10.96;48.33
706;BME280;21234;48.690;9.016;2024-02-21T12:53:53;96241.16;;;10.84;46.51
706;BME280;21234;48.690;9.016;2024-02-21T12:56:20;96225.75;;;10.90;47.07
706;BME280;21234;48.690;9.016;2024-02-21T12:58:47;96228.66;;;10.83;45.36
706;BME280;21234;48.690;9.016;2024-02-21T13:01:14;96223.28;;;10.88;46.90
706;BME280;21234;48.690;9.016;2024-02-21T13:03:41;96213.28;;;10.94;48.07
706;BME280;21234;48.690;9.016;2024-02-21T13:06:07;96210.56;;;10.94;47.34
706;BME280;21234;48.690;9.016;2024-02-21T13:08:36;96205.69;;;10.96;47.51
706;BME280;21234;48.690;9.016;2024-02-21T13:11:04;96204.44;;;10.82;48.24
706;BME280;21234;48.690;9.016;2024-02-21T13:13:31;96201.34;;;10.95;49.41
706;BME280;21234;48.690;9.016;2024-02-21T13:15:58;96193.50;;;10.98;48.30
706;BME280;21234;48.690;9.016;2024-02-21T13:18:24;96185.00;;;10.95;46.55
706;BME280;21234;48.690;9.016;2024-02-21T13:20:51;96186.91;;;10.94;48.21
706;BME280;21234;48.690;9.016;2024-02-21T13:23:18;96178.75;;;10.94;47.05
706;BME280;21234;48.690;9.016;2024-02-21T13:25:46;96179.88;;;10.98;47.67
706;BME280;21234;48.690;9.016;2024-02-21T13:28:14;96167.25;;;11.14;48.29
706;BME280;21234;48.690;9.016;2024-02-21T13:30:41;96165.31;;;11.09;48.11